createdAt,value
2023-05-15T00:01:51.978Z,100.00
2023-05-15T00:04:20.253Z,100.00
2023-05-15T00:06:49.042Z,100.00
2023-05-15T00:09:17.464Z,100.00
2023-05-15T00:11:45.604Z,100.00
2023-05-15T00:14:13.941Z,100.00
2023-05-15T00:16:42.462Z,100.00
2023-05-15T00:19:10.966Z,100.00
2023-05-15T00:21:39.225Z,100.00
2023-05-15T00:24:07.709Z,100.00
2023-05-15T00:26:37.059Z,100.00
2023-05-15T00:29:04.478Z,100.00
2023-05-15T00:31:33.748Z,100.00
2023-05-15T00:34:01.456Z,100.00
2023-05-15T00:36:29.809Z,100.00
2023-05-15T00:38:58.663Z,100.00
2023-05-15T00:41:28.999Z,100.00
2023-05-15T00:44:00.888Z,100.00
2023-05-15T00:46:33.391Z,100.00
2023-05-15T00:49:04.087Z,100.00
2023-05-15T00:51:33.727Z,100.00
2023-05-15T00:54:05.094Z,100.00
2023-05-15T00:56:35.830Z,100.00
2023-05-15T00:59:07.962Z,100.00
2023-05-15T01:01:38.236Z,100.00
2023-05-15T01:04:08.252Z,100.00
2023-05-15T01:06:38.526Z,100.00
2023-05-15T01:09:11.150Z,100.00
2023-05-15T01:11:43.612Z,100.00
2023-05-15T01:14:13.142Z,100.00
2023-05-15T01:16:42.640Z,100.00
2023-05-15T01:19:13.102Z,100.00
2023-05-15T01:22:04.229Z,100.00
2023-05-15T01:25:08.775Z,100.00
2023-05-15T01:27:51.750Z,100.00
2023-05-15T01:30:31.193Z,100.00
2023-05-15T01:33:18.674Z,100.00
2023-05-15T01:36:33.863Z,100.00
2023-05-15T01:39:07.894Z,100.00
2023-05-15T01:42:03.120Z,100.00
2023-05-15T01:44:41.442Z,100.00
2023-05-15T01:47:20.082Z,100.00
2023-05-15T01:49:57.729Z,100.00
2023-05-15T01:52:38.771Z,100.00
2023-05-15T01:55:11.164Z,100.00
2023-05-15T01:57:43.544Z,100.00
2023-05-15T02:00:16.088Z,100.00
2023-05-15T02:02:50.195Z,100.00
2023-05-15T02:05:23.287Z,100.00
2023-05-15T02:07:55.684Z,100.00
2023-05-15T02:10:27.048Z,100.00
2023-05-15T02:12:57.937Z,100.00
2023-05-15T02:15:30.341Z,100.00
2023-05-15T02:18:00.891Z,100.00
2023-05-15T02:20:31.083Z,100.00
2023-05-15T02:23:01.427Z,100.00
2023-05-15T02:26:25.965Z,100.00
2023-05-15T02:29:23.666Z,100.00
2023-05-15T02:32:26.852Z,100.00
2023-05-15T02:35:16.670Z,100.00
2023-05-15T02:37:55.783Z,100.00
2023-05-15T02:40:28.390Z,100.00
2023-05-15T02:43:00.133Z,100.00
2023-05-15T02:45:29.409Z,100.00
2023-05-15T02:48:01.678Z,100.00
2023-05-15T02:50:31.472Z,100.00
2023-05-15T02:53:10.057Z,100.00
2023-05-15T02:55:40.494Z,100.00
2023-05-15T02:58:10.931Z,100.00
2023-05-15T03:00:41.028Z,100.00
2023-05-15T03:03:11.021Z,100.00
2023-05-15T03:05:40.898Z,100.00
2023-05-15T03:08:10.803Z,100.00
2023-05-15T03:10:40.915Z,100.00
2023-05-15T03:13:11.187Z,100.00
2023-05-15T03:15:43.616Z,100.00
2023-05-15T03:18:11.533Z,100.00
2023-05-15T03:20:41.480Z,100.00
2023-05-15T03:23:11.451Z,100.00
2023-05-15T03:25:41.518Z,100.00
2023-05-15T03:28:11.887Z,100.00
2023-05-15T03:30:45.706Z,100.00
2023-05-15T03:33:15.713Z,100.00
2023-05-15T03:35:46.032Z,100.00
2023-05-15T03:38:15.863Z,100.00
2023-05-15T03:40:46.136Z,100.00
2023-05-15T03:43:16.363Z,100.00
2023-05-15T03:45:46.455Z,100.00
2023-05-15T03:48:16.366Z,100.00
2023-05-15T03:50:47.080Z,100.00
2023-05-15T03:53:17.371Z,100.00
2023-05-15T03:55:47.486Z,100.00
2023-05-15T03:58:17.237Z,100.00
2023-05-15T04:00:47.216Z,100.00
2023-05-15T04:03:15.799Z,100.00
2023-05-15T04:05:44.428Z,100.00
2023-05-15T04:08:12.685Z,100.00
2023-05-15T04:10:41.233Z,100.00
2023-05-15T04:13:10.066Z,100.00
2023-05-15T04:15:38.923Z,100.00
2023-05-15T04:18:06.644Z,100.00
2023-05-15T04:20:35.794Z,100.00
2023-05-15T04:23:05.972Z,100.00
2023-05-15T04:25:33.385Z,100.00
2023-05-15T04:28:01.961Z,100.00
2023-05-15T04:30:30.227Z,100.00
2023-05-15T04:32:58.977Z,100.00
2023-05-15T04:35:27.811Z,100.00
2023-05-15T04:37:56.185Z,100.00
2023-05-15T04:40:24.575Z,100.00
2023-05-15T04:42:53.107Z,100.00
2023-05-15T04:45:21.766Z,100.00
2023-05-15T04:47:49.997Z,100.00
2023-05-15T04:50:18.392Z,100.00
2023-05-15T04:52:47.312Z,100.00
2023-05-15T04:55:15.832Z,100.00
2023-05-15T04:57:46.559Z,100.00
2023-05-15T05:00:16.425Z,100.00
2023-05-15T05:02:44.392Z,100.00
2023-05-15T05:05:14.882Z,100.00
2023-05-15T05:07:46.573Z,100.00
2023-05-15T05:10:17.047Z,100.00
2023-05-15T05:12:46.886Z,100.00
2023-05-15T05:15:16.815Z,100.00
2023-05-15T05:17:47.261Z,100.00
2023-05-15T05:20:17.344Z,100.00
2023-05-15T05:22:47.054Z,100.00
2023-05-15T05:25:15.454Z,100.00
2023-05-15T05:27:43.949Z,100.00
2023-05-15T05:30:13.164Z,100.00
2023-05-15T05:32:40.917Z,100.00
2023-05-15T05:35:09.893Z,100.00
2023-05-15T05:37:40.812Z,100.00
2023-05-15T05:40:11.010Z,100.00
2023-05-15T05:42:38.460Z,100.00
2023-05-15T05:45:08.207Z,100.00
2023-05-15T05:47:38.328Z,100.00
2023-05-15T05:50:08.464Z,100.00
2023-05-15T05:52:38.721Z,100.00
2023-05-15T05:55:10.384Z,100.00
2023-05-15T05:57:40.881Z,100.00
2023-05-15T06:00:12.967Z,100.00
2023-05-15T06:02:43.513Z,100.00
2023-05-15T06:05:14.851Z,100.00
2023-05-15T06:07:45.141Z,100.00
2023-05-15T06:10:13.202Z,100.00
2023-05-15T06:12:40.992Z,100.00
2023-05-15T06:15:09.795Z,100.00
2023-05-15T06:17:38.535Z,100.00
2023-05-15T06:20:08.885Z,100.00
2023-05-15T06:22:38.898Z,100.00
2023-05-15T06:25:13.934Z,100.00
2023-05-15T06:27:44.200Z,100.00
2023-05-15T06:30:15.062Z,100.00
2023-05-15T06:32:46.003Z,100.00
2023-05-15T06:35:16.315Z,100.00
2023-05-15T06:37:50.616Z,100.00
2023-05-15T06:40:21.656Z,100.00
2023-05-15T06:42:51.835Z,100.00
2023-05-15T06:45:22.055Z,100.00
2023-05-15T06:47:52.259Z,100.00
2023-05-15T06:50:22.602Z,100.00
2023-05-15T06:52:52.791Z,100.00
2023-05-15T06:55:23.163Z,100.00
2023-05-15T06:57:53.513Z,100.00
2023-05-15T07:00:23.753Z,100.00
2023-05-15T07:02:54.009Z,100.00
2023-05-15T07:05:24.325Z,100.00
2023-05-15T07:07:55.018Z,100.00
2023-05-15T07:10:25.535Z,100.00
2023-05-15T07:12:56.051Z,100.00
2023-05-15T07:15:26.553Z,100.00
2023-05-15T07:17:56.911Z,100.00
2023-05-15T07:20:30.298Z,98.39
2023-05-15T07:23:03.769Z,96.72
2023-05-15T07:25:33.996Z,95.36
2023-05-15T07:28:04.710Z,87.13
2023-05-15T07:30:34.968Z,86.63
2023-05-15T07:33:05.255Z,84.04
2023-05-15T07:35:35.672Z,83.24
2023-05-15T07:38:06.010Z,79.07
2023-05-15T07:40:36.448Z,78.38
2023-05-15T07:43:06.901Z,80.51
2023-05-15T07:45:37.653Z,75.47
2023-05-15T07:48:16.670Z,78.78
2023-05-15T07:50:48.527Z,75.97
2023-05-15T07:53:18.850Z,76.64
2023-05-15T07:55:49.208Z,74.03
2023-05-15T07:58:19.548Z,75.57
2023-05-15T08:00:49.910Z,75.02
2023-05-15T08:03:20.190Z,73.93
2023-05-15T08:05:48.599Z,74.32
2023-05-15T08:08:17.176Z,71.24
2023-05-15T08:10:46.063Z,71.50
2023-05-15T08:13:14.125Z,71.83
2023-05-15T08:15:43.588Z,72.54
2023-05-15T08:18:11.847Z,72.80
2023-05-15T08:20:39.639Z,70.79
2023-05-15T08:23:08.958Z,72.15
2023-05-15T08:25:36.468Z,73.96
2023-05-15T08:28:06.052Z,71.82
2023-05-15T08:30:33.446Z,71.82
2023-05-15T08:33:01.888Z,71.65
2023-05-15T08:35:30.328Z,70.70
2023-05-15T08:37:59.847Z,68.69
2023-05-15T08:43:17.148Z,66.22
2023-05-15T08:45:45.905Z,67.23
2023-05-15T08:48:21.902Z,61.23
2023-05-15T08:50:51.414Z,59.96
2023-05-15T08:53:21.375Z,60.14
2023-05-15T08:55:52.350Z,63.11
2023-05-15T08:58:26.153Z,56.82
2023-05-15T09:00:59.249Z,56.91
2023-05-15T09:03:29.705Z,56.85
2023-05-15T09:06:02.040Z,56.65
2023-05-15T09:08:34.561Z,55.25
2023-05-15T09:11:08.121Z,57.30
2023-05-15T09:13:38.302Z,58.11
2023-05-15T09:16:08.547Z,60.46
2023-05-15T09:18:41.119Z,59.81
2023-05-15T09:21:33.987Z,60.76
2023-05-15T09:24:19.288Z,62.49
2023-05-15T09:27:05.244Z,62.67
2023-05-15T09:29:39.282Z,67.24
2023-05-15T09:32:15.823Z,67.62
2023-05-15T09:34:46.533Z,65.58
2023-05-15T09:37:34.395Z,69.06
2023-05-15T09:40:11.454Z,64.42
2023-05-15T09:42:39.342Z,66.40
2023-05-15T09:45:18.757Z,66.69
2023-05-15T09:47:47.904Z,72.52
2023-05-15T09:50:23.827Z,71.12
2023-05-15T09:52:54.271Z,77.97
2023-05-15T09:55:24.837Z,80.06
2023-05-15T09:58:16.701Z,81.55
2023-05-15T10:00:49.621Z,87.04
2023-05-15T10:03:21.126Z,86.21
2023-05-15T10:06:01.430Z,88.46
2023-05-15T10:08:31.747Z,89.98
2023-05-15T10:11:04.247Z,78.93
2023-05-15T10:13:37.436Z,81.22
2023-05-15T10:16:08.610Z,71.42
2023-05-15T10:18:42.106Z,65.68
2023-05-15T10:21:18.442Z,64.97
2023-05-15T10:23:51.198Z,64.56
2023-05-15T10:26:34.140Z,64.78
2023-05-15T10:29:17.089Z,62.50
2023-05-15T10:31:50.652Z,59.30
2023-05-15T10:34:22.030Z,57.04
2023-05-15T10:36:52.769Z,56.59
2023-05-15T10:39:24.490Z,54.43
2023-05-15T10:41:55.998Z,56.31
2023-05-15T10:44:24.064Z,53.97
2023-05-15T10:46:56.057Z,53.38
2023-05-15T10:49:26.057Z,52.08
2023-05-15T10:51:56.290Z,52.75
2023-05-15T10:54:24.174Z,53.20
2023-05-15T10:56:57.353Z,51.68
2023-05-15T10:59:35.057Z,54.52
2023-05-15T11:02:39.560Z,55.65
2023-05-15T11:05:11.922Z,55.15
2023-05-15T11:07:42.430Z,56.25
2023-05-15T11:10:31.008Z,58.46
2023-05-15T11:13:03.206Z,55.66
2023-05-15T11:15:45.795Z,56.08
2023-05-15T11:18:15.916Z,56.93
2023-05-15T11:20:52.159Z,57.46
2023-05-15T11:23:23.892Z,56.23
2023-05-15T11:25:57.709Z,56.33
2023-05-15T11:28:31.288Z,57.05
2023-05-15T11:31:07.362Z,54.95
2023-05-15T11:33:40.802Z,52.81
2023-05-15T11:36:16.016Z,52.89
2023-05-15T11:38:51.365Z,53.90
2023-05-15T11:41:22.212Z,51.58
2023-05-15T11:43:51.178Z,52.26
2023-05-15T11:46:18.644Z,51.27
2023-05-15T11:48:48.227Z,52.34
2023-05-15T11:51:27.653Z,50.13
2023-05-15T11:53:58.314Z,49.48
2023-05-15T11:56:29.121Z,46.79
2023-05-15T11:59:03.893Z,47.35
2023-05-15T12:01:47.868Z,46.31
2023-05-15T12:04:19.839Z,47.15
2023-05-15T12:06:50.174Z,47.79
2023-05-15T12:09:22.729Z,47.77
2023-05-15T12:11:56.952Z,46.11
2023-05-15T12:14:31.965Z,45.80
2023-05-15T12:17:06.134Z,47.47
2023-05-15T12:19:38.902Z,47.84
2023-05-15T12:22:08.676Z,47.04
2023-05-15T12:24:39.982Z,46.10
2023-05-15T12:27:10.400Z,44.71
2023-05-15T12:29:43.042Z,43.37
2023-05-15T12:32:12.462Z,43.00
2023-05-15T12:34:42.390Z,44.05
2023-05-15T12:37:15.982Z,43.57
2023-05-15T12:39:54.734Z,44.99
2023-05-15T12:42:24.263Z,43.05
2023-05-15T12:44:57.340Z,42.66
2023-05-15T12:47:28.529Z,43.10
2023-05-15T12:49:59.075Z,43.66
2023-05-15T12:52:29.657Z,42.66
2023-05-15T12:55:02.886Z,43.29
2023-05-15T12:57:31.671Z,43.86
2023-05-15T13:00:01.589Z,42.98
2023-05-15T13:02:31.611Z,43.24
2023-05-15T13:05:05.155Z,42.66
2023-05-15T13:07:34.662Z,43.10
2023-05-15T13:10:09.715Z,43.42
2023-05-15T13:12:45.002Z,43.31
2023-05-15T13:15:33.500Z,43.23
2023-05-15T13:18:07.371Z,41.80
2023-05-15T13:20:48.587Z,43.37
2023-05-15T13:23:24.267Z,42.17
2023-05-15T13:25:54.463Z,43.64
2023-05-15T13:28:24.614Z,44.29
2023-05-15T13:30:54.915Z,42.18
2023-05-15T13:33:25.633Z,40.54
2023-05-15T13:35:57.505Z,39.21
2023-05-15T13:38:27.651Z,38.15
2023-05-15T13:40:58.640Z,39.61
2023-05-15T13:43:28.901Z,40.34
2023-05-15T13:45:59.250Z,39.37
2023-05-15T13:48:29.443Z,40.38
2023-05-15T13:50:59.619Z,40.44
2023-05-15T13:56:06.093Z,38.75
2023-05-15T13:58:36.563Z,40.65
2023-05-15T14:01:07.492Z,44.43
2023-05-15T14:03:37.879Z,47.59
2023-05-15T14:06:09.372Z,51.03
2023-05-15T14:08:39.676Z,53.77
2023-05-15T14:11:09.842Z,57.70
2023-05-15T14:13:40.336Z,59.56
2023-05-15T14:16:10.476Z,61.02
2023-05-15T14:18:41.080Z,63.62
2023-05-15T14:21:11.387Z,68.94
2023-05-15T14:23:41.572Z,71.02
2023-05-15T14:26:11.835Z,73.24
2023-05-15T14:28:42.058Z,74.86
2023-05-15T14:31:10.923Z,75.30
2023-05-15T14:33:41.347Z,76.04
2023-05-15T14:36:11.288Z,77.51
2023-05-15T14:38:39.712Z,75.18
2023-05-15T14:41:08.290Z,74.66
2023-05-15T14:43:36.722Z,74.59
2023-05-15T14:46:05.540Z,74.31
2023-05-15T14:48:34.182Z,74.18
2023-05-15T14:51:02.728Z,69.94
2023-05-15T14:53:31.074Z,67.13
2023-05-15T14:56:01.307Z,64.78
2023-05-15T14:58:32.589Z,67.56
2023-05-15T15:01:03.850Z,65.20
2023-05-15T15:03:34.437Z,64.97
2023-05-15T15:06:05.102Z,65.37
2023-05-15T15:08:35.304Z,63.34
2023-05-15T15:11:06.538Z,64.29
2023-05-15T15:13:36.740Z,60.72
2023-05-15T15:16:08.332Z,60.42
2023-05-15T15:18:38.615Z,63.27
2023-05-15T15:21:09.449Z,61.64
2023-05-15T15:23:39.562Z,63.42
2023-05-15T15:26:09.730Z,64.35
2023-05-15T15:28:40.077Z,64.26
2023-05-15T15:31:11.225Z,64.39
2023-05-15T15:33:41.636Z,65.89
2023-05-15T15:36:11.924Z,66.20
2023-05-15T15:38:43.948Z,65.96
2023-05-15T15:41:14.547Z,65.79
2023-05-15T15:43:44.704Z,64.62
2023-05-15T15:46:15.137Z,64.36
2023-05-15T15:48:45.340Z,64.26
2023-05-15T15:51:18.587Z,63.27
2023-05-15T15:53:48.776Z,59.06
2023-05-15T15:56:19.070Z,58.61
2023-05-15T15:58:49.436Z,58.08
2023-05-15T16:01:17.977Z,59.59
2023-05-15T16:03:46.297Z,61.19
2023-05-15T16:06:14.595Z,62.61
2023-05-15T16:08:43.082Z,63.50
2023-05-15T16:11:11.722Z,65.10
2023-05-15T16:13:41.984Z,63.13
2023-05-15T16:16:10.699Z,64.48
2023-05-15T16:18:40.935Z,64.90
2023-05-15T16:21:09.367Z,65.94
2023-05-15T16:23:40.509Z,65.93
2023-05-15T16:26:11.438Z,66.69
2023-05-15T16:28:41.595Z,67.78
2023-05-15T16:31:11.950Z,66.49
2023-05-15T16:33:42.103Z,68.60
2023-05-15T16:36:12.243Z,69.96
2023-05-15T16:38:42.797Z,70.16
2023-05-15T16:41:13.066Z,71.13
2023-05-15T16:43:44.102Z,71.72
2023-05-15T16:46:14.493Z,72.46
2023-05-15T16:48:44.696Z,73.79
2023-05-15T16:51:15.048Z,74.60
2023-05-15T16:53:45.481Z,75.23
2023-05-15T16:56:15.694Z,75.71
2023-05-15T16:58:46.054Z,77.64
2023-05-15T17:01:16.522Z,77.57
2023-05-15T17:03:47.005Z,78.67
2023-05-15T17:06:17.358Z,78.69
2023-05-15T17:08:47.554Z,79.13
2023-05-15T17:11:17.723Z,79.86
2023-05-15T17:13:47.921Z,80.36
2023-05-15T17:16:18.097Z,81.93
2023-05-15T17:18:48.322Z,84.52
2023-05-15T17:21:18.596Z,86.17
2023-05-15T17:23:53.252Z,90.84
2023-05-15T17:26:23.980Z,97.32
2023-05-15T17:28:54.183Z,100.00
2023-05-15T17:31:24.513Z,100.00
2023-05-15T17:33:54.779Z,100.00
2023-05-15T17:36:24.953Z,100.00
2023-05-15T17:38:55.181Z,100.00
2023-05-15T17:41:25.987Z,100.00
2023-05-15T17:43:56.265Z,100.00
2023-05-15T17:46:26.475Z,100.00
2023-05-15T17:48:56.726Z,100.00
2023-05-15T17:51:27.068Z,100.00
2023-05-15T17:53:57.172Z,100.00
2023-05-15T17:56:28.141Z,100.00
2023-05-15T17:58:58.249Z,100.00
2023-05-15T18:01:28.614Z,100.00
2023-05-15T18:03:58.931Z,100.00
2023-05-15T18:06:29.311Z,100.00
2023-05-15T18:09:00.015Z,100.00
2023-05-15T18:11:28.100Z,100.00
2023-05-15T18:13:56.787Z,100.00
2023-05-15T18:16:25.292Z,100.00
2023-05-15T18:18:53.888Z,100.00
2023-05-15T18:21:22.206Z,100.00
2023-05-15T18:23:50.692Z,100.00
2023-05-15T18:26:19.178Z,100.00
2023-05-15T18:28:48.077Z,100.00
2023-05-15T18:31:16.629Z,100.00
2023-05-15T18:33:45.213Z,100.00
2023-05-15T18:36:13.410Z,100.00
2023-05-15T18:38:41.951Z,100.00
2023-05-15T18:41:10.234Z,100.00
2023-05-15T18:43:38.845Z,100.00
2023-05-15T18:46:07.382Z,100.00
2023-05-15T18:48:35.979Z,100.00
2023-05-15T18:51:04.664Z,100.00
2023-05-15T18:53:32.878Z,100.00
2023-05-15T18:56:01.203Z,100.00
2023-05-15T18:58:29.660Z,100.00
2023-05-15T19:00:58.194Z,100.00
2023-05-15T19:03:26.898Z,100.00
2023-05-15T19:05:57.323Z,100.00
2023-05-15T19:08:26.833Z,100.00
2023-05-15T19:10:55.279Z,100.00
2023-05-15T19:13:23.755Z,100.00
2023-05-15T19:15:53.927Z,100.00
2023-05-15T19:18:24.097Z,100.00
2023-05-15T19:20:54.482Z,100.00
2023-05-15T19:23:25.161Z,100.00
2023-05-15T19:25:55.343Z,100.00
2023-05-15T19:28:25.598Z,100.00
2023-05-15T19:30:55.908Z,100.00
2023-05-15T19:33:26.214Z,100.00
2023-05-15T19:35:56.432Z,100.00
2023-05-15T19:38:26.696Z,100.00
2023-05-15T19:40:57.010Z,100.00
2023-05-15T19:43:27.716Z,100.00
2023-05-15T19:45:58.004Z,100.00
2023-05-15T19:48:28.924Z,100.00
2023-05-15T19:50:59.110Z,100.00
2023-05-15T19:53:29.339Z,100.00
2023-05-15T19:55:59.494Z,100.00
2023-05-15T19:58:30.334Z,100.00
2023-05-15T20:01:00.483Z,100.00
2023-05-15T20:03:34.002Z,100.00
2023-05-15T20:06:04.372Z,100.00
2023-05-15T20:08:34.551Z,100.00
2023-05-15T20:11:05.012Z,100.00
2023-05-15T20:13:35.462Z,100.00
2023-05-15T20:16:10.872Z,100.00
2023-05-15T20:18:41.856Z,100.00
2023-05-15T20:21:12.153Z,100.00
2023-05-15T20:23:42.290Z,100.00
2023-05-15T20:26:12.456Z,100.00
2023-05-15T20:28:44.418Z,100.00
2023-05-15T20:31:15.693Z,100.00
2023-05-15T20:33:46.280Z,100.00
2023-05-15T20:36:16.886Z,100.00
2023-05-15T20:38:47.774Z,100.00
2023-05-15T20:41:18.327Z,100.00
2023-05-15T20:43:48.464Z,100.00
2023-05-15T20:46:18.828Z,100.00
2023-05-15T20:48:49.239Z,100.00
2023-05-15T20:51:17.675Z,100.00
2023-05-15T20:53:45.998Z,100.00
2023-05-15T20:56:14.314Z,100.00
2023-05-15T20:58:44.480Z,100.00
2023-05-15T21:01:15.562Z,100.00
2023-05-15T21:03:46.066Z,100.00
2023-05-15T21:06:16.379Z,100.00
2023-05-15T21:08:46.549Z,100.00
2023-05-15T21:11:16.775Z,100.00
2023-05-15T21:13:46.957Z,100.00
2023-05-15T21:16:17.133Z,100.00
2023-05-15T21:18:49.117Z,100.00
2023-05-15T21:21:19.732Z,100.00
2023-05-15T21:23:50.181Z,100.00
2023-05-15T21:26:20.359Z,100.00
2023-05-15T21:28:50.704Z,100.00
2023-05-15T21:31:20.937Z,100.00
2023-05-15T21:33:51.129Z,100.00
2023-05-15T21:36:22.067Z,100.00
2023-05-15T21:38:52.277Z,100.00
2023-05-15T21:41:22.437Z,100.00
2023-05-15T21:43:52.827Z,100.00
2023-05-15T21:46:23.961Z,100.00
2023-05-15T21:48:54.255Z,100.00
2023-05-15T21:51:24.603Z,100.00
2023-05-15T21:53:54.950Z,100.00
2023-05-15T21:56:25.252Z,100.00
2023-05-15T21:58:55.628Z,100.00
2023-05-15T22:01:25.982Z,100.00
2023-05-15T22:03:56.746Z,100.00
2023-05-15T22:06:27.113Z,100.00
2023-05-15T22:08:58.010Z,100.00
2023-05-15T22:11:28.140Z,100.00
2023-05-15T22:13:58.460Z,100.00
2023-05-15T22:16:28.819Z,100.00
2023-05-15T22:18:57.113Z,100.00
2023-05-15T22:21:25.650Z,100.00
2023-05-15T22:23:54.105Z,100.00
2023-05-15T22:26:23.734Z,100.00
2023-05-15T22:28:57.346Z,100.00
2023-05-15T22:31:28.727Z,100.00
2023-05-15T22:33:59.088Z,100.00
2023-05-15T22:36:31.064Z,100.00
2023-05-15T22:39:01.688Z,100.00
2023-05-15T22:41:32.465Z,100.00
2023-05-15T22:44:03.613Z,100.00
2023-05-15T22:46:33.980Z,100.00
2023-05-15T22:49:04.631Z,100.00
2023-05-15T22:51:35.103Z,100.00
2023-05-15T22:54:05.410Z,100.00
2023-05-15T22:56:35.673Z,100.00
2023-05-15T22:59:05.969Z,100.00
2023-05-15T23:01:36.139Z,100.00
2023-05-15T23:04:07.684Z,100.00
2023-05-15T23:06:38.555Z,100.00
2023-05-15T23:09:09.296Z,100.00
2023-05-15T23:11:39.584Z,100.00
2023-05-15T23:14:10.218Z,100.00
2023-05-15T23:16:40.597Z,100.00
2023-05-15T23:19:10.995Z,100.00
2023-05-15T23:21:41.275Z,100.00
2023-05-15T23:24:11.537Z,100.00
2023-05-15T23:26:41.724Z,100.00
2023-05-15T23:29:12.550Z,100.00
2023-05-15T23:31:45.749Z,100.00
2023-05-15T23:34:16.309Z,100.00
2023-05-15T23:36:46.554Z,100.00
2023-05-15T23:39:16.894Z,100.00
2023-05-15T23:41:47.090Z,100.00
2023-05-15T23:44:17.366Z,100.00
2023-05-15T23:46:47.671Z,100.00
2023-05-15T23:49:18.118Z,100.00
2023-05-15T23:51:48.324Z,100.00
2023-05-15T23:54:18.548Z,100.00
2023-05-15T23:56:48.751Z,100.00
2023-05-15T23:59:19.187Z,100.00
